createdAt,value
2022-10-25T00:01:19.027Z,23.27
2022-10-25T00:03:47.476Z,24.30
2022-10-25T00:06:17.106Z,25.17
2022-10-25T00:08:45.318Z,26.47
2022-10-25T00:11:19.404Z,22.50
2022-10-25T00:13:49.047Z,27.07
2022-10-25T00:16:18.283Z,25.87
2022-10-25T00:18:46.368Z,20.70
2022-10-25T00:21:14.632Z,20.73
2022-10-25T00:23:44.125Z,24.27
2022-10-25T00:26:13.422Z,27.87
2022-10-25T00:28:41.736Z,20.77
2022-10-25T00:31:12.143Z,24.47
2022-10-25T00:33:41.427Z,31.30
2022-10-25T00:36:11.943Z,23.87
2022-10-25T00:38:40.592Z,22.13
2022-10-25T00:41:10.631Z,17.67
2022-10-25T00:43:40.649Z,17.10
2022-10-25T00:46:14.081Z,27.30
2022-10-25T00:48:46.798Z,19.73
2022-10-25T00:51:15.245Z,23.33
2022-10-25T00:53:44.465Z,16.83
2022-10-25T00:56:17.940Z,24.27
2022-10-25T00:58:50.610Z,23.40
2022-10-25T01:01:19.483Z,23.97
2022-10-25T01:03:50.641Z,23.30
2022-10-25T01:06:22.187Z,16.00
2022-10-25T01:08:53.111Z,24.50
2022-10-25T01:11:22.667Z,21.83
2022-10-25T01:13:52.314Z,22.17
2022-10-25T01:16:26.677Z,20.13
2022-10-25T01:19:04.174Z,22.07
2022-10-25T01:21:46.639Z,20.80
2022-10-25T01:25:01.927Z,23.43
2022-10-25T01:27:53.419Z,19.37
2022-10-25T01:30:24.229Z,18.50
2022-10-25T01:33:06.205Z,18.20
2022-10-25T01:35:44.198Z,19.13
2022-10-25T01:38:39.877Z,16.00
2022-10-25T01:41:18.799Z,22.20
2022-10-25T01:44:02.863Z,15.63
2022-10-25T01:46:37.730Z,22.03
2022-10-25T01:49:13.494Z,22.20
2022-10-25T01:51:41.552Z,22.67
2022-10-25T01:54:20.343Z,19.50
2022-10-25T01:57:07.394Z,17.53
2022-10-25T01:59:51.746Z,16.30
2022-10-25T02:02:27.271Z,17.83
2022-10-25T02:05:06.375Z,14.33
2022-10-25T02:07:39.257Z,13.37
2022-10-25T02:10:11.758Z,16.67
2022-10-25T02:12:56.888Z,16.53
2022-10-25T02:15:31.491Z,24.00
2022-10-25T02:18:02.112Z,18.93
2022-10-25T02:20:35.705Z,17.97
2022-10-25T02:23:06.774Z,24.67
2022-10-25T02:25:37.031Z,18.33
2022-10-25T02:28:09.278Z,15.63
2022-10-25T02:30:40.764Z,20.17
2022-10-25T02:33:08.819Z,18.47
2022-10-25T02:35:38.895Z,14.77
2022-10-25T02:38:07.381Z,21.73
2022-10-25T02:40:35.817Z,29.87
2022-10-25T02:43:03.931Z,20.47
2022-10-25T02:45:32.024Z,13.80
2022-10-25T02:48:00.029Z,14.33
2022-10-25T02:50:28.055Z,22.77
2022-10-25T02:52:57.567Z,22.73
2022-10-25T02:55:25.644Z,21.50
2022-10-25T02:57:53.649Z,19.03
2022-10-25T03:00:21.948Z,21.17
2022-10-25T03:02:50.023Z,23.63
2022-10-25T03:05:18.268Z,17.97
2022-10-25T03:07:46.294Z,16.57
2022-10-25T03:10:15.864Z,18.70
2022-10-25T03:12:44.178Z,24.93
2022-10-25T03:15:12.442Z,22.47
2022-10-25T03:17:40.464Z,21.17
2022-10-25T03:20:10.465Z,15.83
2022-10-25T03:22:38.444Z,17.40
2022-10-25T03:27:42.171Z,21.77
2022-10-25T03:30:11.299Z,20.93
2022-10-25T03:32:39.275Z,19.53
2022-10-25T03:35:09.033Z,21.73
2022-10-25T03:37:39.010Z,20.63
2022-10-25T03:40:08.262Z,20.27
2022-10-25T03:42:36.323Z,24.67
2022-10-25T03:45:06.994Z,17.20
2022-10-25T03:47:35.153Z,23.70
2022-10-25T03:50:03.223Z,19.87
2022-10-25T03:52:31.299Z,23.73
2022-10-25T03:54:59.427Z,27.87
2022-10-25T03:57:27.504Z,23.13
2022-10-25T03:59:58.333Z,19.57
2022-10-25T04:02:28.473Z,23.30
2022-10-25T04:04:56.477Z,23.83
2022-10-25T04:07:24.494Z,22.50
2022-10-25T04:09:52.597Z,19.77
2022-10-25T04:12:20.709Z,22.93
2022-10-25T04:14:48.772Z,21.73
2022-10-25T04:17:16.936Z,21.63
2022-10-25T04:19:47.006Z,21.20
2022-10-25T04:22:15.294Z,19.87
2022-10-25T04:24:43.493Z,19.33
2022-10-25T04:27:11.673Z,19.37
2022-10-25T04:29:39.788Z,21.33
2022-10-25T04:32:08.142Z,30.33
2022-10-25T04:34:36.338Z,20.37
2022-10-25T04:37:05.822Z,28.23
2022-10-25T04:39:34.024Z,20.60
2022-10-25T04:42:03.468Z,23.20
2022-10-25T04:44:31.541Z,30.07
2022-10-25T04:47:00.971Z,38.80
2022-10-25T04:49:29.209Z,30.30
2022-10-25T04:51:57.188Z,36.00
2022-10-25T04:54:26.676Z,28.43
2022-10-25T04:56:54.659Z,32.97
2022-10-25T04:59:23.015Z,20.67
2022-10-25T05:04:24.565Z,29.37
2022-10-25T05:06:52.574Z,25.50
2022-10-25T05:09:20.597Z,32.90
2022-10-25T05:11:50.002Z,32.60
2022-10-25T05:14:18.087Z,23.83
2022-10-25T05:16:46.146Z,27.60
2022-10-25T05:19:14.626Z,34.90
2022-10-25T05:21:42.689Z,23.93
2022-10-25T05:24:10.713Z,33.43
2022-10-25T05:26:39.322Z,22.73
2022-10-25T05:29:10.355Z,40.40
2022-10-25T05:31:39.177Z,26.70
2022-10-25T05:34:07.462Z,20.70
2022-10-25T05:36:35.449Z,33.33
2022-10-25T05:39:03.514Z,34.00
2022-10-25T05:41:34.576Z,39.37
2022-10-25T05:44:05.506Z,29.77
2022-10-25T05:46:35.099Z,25.63
2022-10-25T05:49:03.399Z,27.73
2022-10-25T05:51:35.246Z,27.80
2022-10-25T05:54:07.639Z,30.77
2022-10-25T05:56:37.042Z,24.50
2022-10-25T05:59:08.871Z,26.67
2022-10-25T06:01:40.460Z,29.60
2022-10-25T06:04:09.435Z,31.63
2022-10-25T06:06:38.643Z,26.10
2022-10-25T06:09:07.885Z,31.20
2022-10-25T06:11:35.899Z,33.77
2022-10-25T06:14:04.487Z,22.60
2022-10-25T06:16:32.845Z,22.50
2022-10-25T06:19:02.285Z,36.67
2022-10-25T06:21:31.621Z,22.43
2022-10-25T06:24:00.409Z,25.73
2022-10-25T06:26:30.590Z,24.57
2022-10-25T06:29:00.639Z,21.87
2022-10-25T06:31:30.164Z,25.73
2022-10-25T06:34:00.118Z,34.13
2022-10-25T06:36:31.337Z,35.13
2022-10-25T06:39:05.577Z,23.57
2022-10-25T06:41:37.009Z,29.20
2022-10-25T06:44:07.309Z,31.50
2022-10-25T06:46:57.926Z,21.97
2022-10-25T06:49:25.630Z,24.47
2022-10-25T06:51:55.787Z,22.00
2022-10-25T06:54:25.854Z,18.77
2022-10-25T06:56:53.957Z,30.73
2022-10-25T06:59:22.170Z,27.60
2022-10-25T07:01:50.601Z,16.20
2022-10-25T07:04:19.032Z,15.37
2022-10-25T07:06:50.050Z,28.00
2022-10-25T07:09:22.777Z,19.63
2022-10-25T07:11:50.819Z,20.40
2022-10-25T07:14:19.228Z,21.07
2022-10-25T07:16:47.405Z,29.07
2022-10-25T07:19:15.532Z,21.40
2022-10-25T07:21:45.147Z,22.47
2022-10-25T07:24:13.449Z,22.37
2022-10-25T07:26:42.945Z,19.20
2022-10-25T07:29:11.244Z,22.23
2022-10-25T07:31:43.225Z,19.13
2022-10-25T07:34:13.649Z,22.63
2022-10-25T07:36:41.724Z,18.47
2022-10-25T07:39:10.021Z,14.43
2022-10-25T07:41:38.097Z,19.20
2022-10-25T07:44:11.747Z,13.70
2022-10-25T07:46:43.674Z,18.15
2022-10-25T07:49:11.762Z,17.77
2022-10-25T07:51:39.926Z,26.27
2022-10-25T07:54:08.556Z,20.90
2022-10-25T07:56:36.688Z,22.38
2022-10-25T07:59:04.849Z,17.70
2022-10-25T08:01:34.716Z,18.80
2022-10-25T08:04:02.774Z,14.75
2022-10-25T08:06:31.187Z,22.77
2022-10-25T08:09:05.455Z,19.20
2022-10-25T08:11:43.247Z,18.67
2022-10-25T08:14:11.353Z,16.70
2022-10-25T08:16:40.916Z,16.77
2022-10-25T08:19:09.023Z,23.45
2022-10-25T08:21:37.055Z,20.77
2022-10-25T08:24:05.446Z,22.33
2022-10-25T08:26:36.728Z,21.05
2022-10-25T08:29:05.328Z,17.70
2022-10-25T08:31:33.337Z,19.15
2022-10-25T08:34:02.870Z,15.75
2022-10-25T08:36:31.117Z,19.17
2022-10-25T08:38:59.210Z,20.50
2022-10-25T08:41:36.146Z,19.48
2022-10-25T08:44:23.230Z,28.05
2022-10-25T08:46:58.370Z,17.98
2022-10-25T08:49:34.977Z,21.65
2022-10-25T08:52:04.669Z,18.45
2022-10-25T08:54:37.034Z,20.70
2022-10-25T08:57:16.386Z,12.50
2022-10-25T08:59:49.395Z,17.05
2022-10-25T09:02:23.479Z,19.58
2022-10-25T09:04:53.206Z,20.58
2022-10-25T09:07:42.082Z,20.40
2022-10-25T09:10:22.891Z,18.27
2022-10-25T09:13:00.111Z,22.48
2022-10-25T09:15:43.262Z,19.55
2022-10-25T09:18:17.291Z,21.15
2022-10-25T09:20:51.814Z,18.55
2022-10-25T09:23:29.088Z,20.23
2022-10-25T09:26:06.476Z,23.88
2022-10-25T09:28:52.524Z,21.05
2022-10-25T09:31:24.404Z,20.63
2022-10-25T09:34:01.653Z,22.95
2022-10-25T09:36:38.324Z,24.27
2022-10-25T09:39:15.731Z,21.05
2022-10-25T09:41:48.598Z,22.15
2022-10-25T09:44:24.797Z,19.60
2022-10-25T09:46:56.265Z,23.35
2022-10-25T09:49:30.667Z,18.00
2022-10-25T09:52:08.142Z,20.45
2022-10-25T09:54:42.389Z,18.88
2022-10-25T09:57:10.571Z,24.08
2022-10-25T09:59:38.658Z,18.65
2022-10-25T10:02:06.825Z,19.92
2022-10-25T10:04:38.084Z,18.35
2022-10-25T10:07:13.409Z,25.23
2022-10-25T10:09:45.869Z,28.20
2022-10-25T10:12:23.919Z,18.92
2022-10-25T10:14:57.403Z,23.17
2022-10-25T10:17:26.315Z,25.30
2022-10-25T10:20:14.223Z,23.45
2022-10-25T10:22:50.868Z,21.67
2022-10-25T10:25:22.731Z,20.30
2022-10-25T10:27:53.631Z,19.42
2022-10-25T10:30:29.310Z,29.20
2022-10-25T10:33:00.684Z,29.45
2022-10-25T10:35:31.701Z,31.40
2022-10-25T10:38:27.001Z,26.73
2022-10-25T10:41:13.659Z,25.77
2022-10-25T10:43:42.760Z,29.25
2022-10-25T10:46:14.836Z,26.90
2022-10-25T10:48:45.512Z,27.08
2022-10-25T10:54:24.519Z,27.95
2022-10-25T10:56:57.605Z,25.65
2022-10-25T10:59:32.601Z,29.13
2022-10-25T11:02:13.516Z,24.88
2022-10-25T11:04:49.288Z,24.38
2022-10-25T11:07:27.567Z,26.63
2022-10-25T11:10:20.219Z,28.92
2022-10-25T11:13:06.805Z,22.40
2022-10-25T11:16:03.316Z,21.00
2022-10-25T11:18:41.739Z,33.33
2022-10-25T11:21:17.544Z,23.98
2022-10-25T11:23:58.436Z,27.83
2022-10-25T11:26:37.129Z,31.45
2022-10-25T11:29:12.092Z,28.10
2022-10-25T11:31:55.749Z,18.77
2022-10-25T11:34:34.505Z,22.17
2022-10-25T11:37:11.167Z,31.35
2022-10-25T11:39:52.771Z,25.92
2022-10-25T11:42:39.160Z,26.52
2022-10-25T11:45:37.128Z,18.40
2022-10-25T11:48:19.421Z,23.02
2022-10-25T11:50:59.515Z,17.35
2022-10-25T11:53:43.003Z,18.55
2022-10-25T11:56:23.648Z,21.25
2022-10-25T11:59:03.133Z,22.63
2022-10-25T12:01:46.728Z,22.77
2022-10-25T12:04:39.977Z,24.67
2022-10-25T12:07:17.390Z,19.75
2022-10-25T12:09:55.486Z,30.55
2022-10-25T12:12:27.943Z,18.88
2022-10-25T12:15:01.095Z,21.63
2022-10-25T12:17:31.772Z,27.20
2022-10-25T12:20:03.718Z,22.92
2022-10-25T12:22:38.603Z,19.80
2022-10-25T12:25:14.736Z,27.40
2022-10-25T12:27:49.517Z,23.38
2022-10-25T12:30:21.193Z,24.95
2022-10-25T12:32:55.509Z,20.58
2022-10-25T12:35:28.671Z,18.42
2022-10-25T12:37:59.111Z,17.02
2022-10-25T12:40:29.761Z,21.88
2022-10-25T12:43:05.055Z,22.25
2022-10-25T12:46:07.448Z,22.63
2022-10-25T12:48:52.932Z,27.67
2022-10-25T12:51:38.050Z,20.02
2022-10-25T12:54:30.099Z,19.20
2022-10-25T12:57:09.987Z,20.27
2022-10-25T12:59:50.807Z,19.13
2022-10-25T13:02:47.685Z,21.63
2022-10-25T13:05:34.742Z,20.65
2022-10-25T13:08:05.906Z,19.98
2022-10-25T13:10:37.152Z,17.48
2022-10-25T13:13:09.251Z,24.80
2022-10-25T13:15:43.721Z,22.52
2022-10-25T13:18:28.307Z,22.33
2022-10-25T13:20:56.735Z,23.58
2022-10-25T13:24:01.389Z,28.73
2022-10-25T13:26:55.946Z,18.95
2022-10-25T13:29:47.567Z,22.55
2022-10-25T13:32:18.803Z,20.33
2022-10-25T13:34:50.158Z,25.80
2022-10-25T13:37:45.259Z,24.13
2022-10-25T13:40:24.777Z,32.67
2022-10-25T13:43:02.538Z,26.20
2022-10-25T13:45:40.224Z,25.15
2022-10-25T13:48:21.174Z,21.75
2022-10-25T13:50:55.514Z,20.65
2022-10-25T13:53:26.192Z,17.65
2022-10-25T13:56:01.321Z,27.67
2022-10-25T13:58:53.118Z,19.52
2022-10-25T14:01:56.271Z,30.52
2022-10-25T14:04:39.533Z,26.30
2022-10-25T14:07:50.934Z,23.40
2022-10-25T14:10:29.227Z,23.10
2022-10-25T14:13:09.381Z,30.73
2022-10-25T14:15:44.897Z,20.58
2022-10-25T14:18:19.679Z,27.13
2022-10-25T14:20:50.247Z,25.50
2022-10-25T14:23:24.009Z,30.08
2022-10-25T14:25:56.972Z,27.60
2022-10-25T14:28:27.814Z,27.02
2022-10-25T14:30:58.201Z,29.38
2022-10-25T14:33:31.016Z,26.45
2022-10-25T14:36:10.059Z,20.17
2022-10-25T14:38:53.103Z,27.25
2022-10-25T14:41:24.215Z,17.30
2022-10-25T14:43:52.997Z,24.67
2022-10-25T14:46:23.364Z,21.85
2022-10-25T14:48:56.562Z,19.05
2022-10-25T14:51:28.898Z,35.58
2022-10-25T14:54:04.345Z,51.22
2022-10-25T14:56:36.020Z,37.60
2022-10-25T14:59:06.504Z,30.58
2022-10-25T15:01:35.889Z,38.55
2022-10-25T15:04:04.284Z,26.90
2022-10-25T15:06:33.776Z,20.20
2022-10-25T15:12:19.338Z,27.88
2022-10-25T15:14:48.463Z,30.83
2022-10-25T15:17:20.238Z,36.97
2022-10-25T15:20:03.632Z,25.70
2022-10-25T15:22:34.359Z,34.70
2022-10-25T15:25:17.258Z,30.10
2022-10-25T15:27:45.684Z,29.55
2022-10-25T15:30:35.144Z,24.30
2022-10-25T15:33:03.623Z,34.33
2022-10-25T15:35:34.000Z,25.88
2022-10-25T15:38:02.025Z,22.10
2022-10-25T15:40:31.621Z,30.13
2022-10-25T15:42:59.715Z,30.48
2022-10-25T15:45:28.331Z,26.08
2022-10-25T15:47:58.612Z,29.05
2022-10-25T15:50:27.054Z,55.97
2022-10-25T15:52:55.947Z,30.75
2022-10-25T15:55:27.400Z,29.88
2022-10-25T15:57:56.894Z,34.42
2022-10-25T16:00:30.812Z,34.60
2022-10-25T16:02:59.131Z,33.40
2022-10-25T16:05:29.037Z,22.08
2022-10-25T16:07:58.201Z,35.90
2022-10-25T16:10:28.420Z,33.15
2022-10-25T16:13:03.981Z,40.10
2022-10-25T16:15:32.971Z,40.53
2022-10-25T16:18:01.037Z,38.72
2022-10-25T16:20:30.701Z,34.85
2022-10-25T16:22:59.408Z,37.80
2022-10-25T16:25:33.058Z,36.22
2022-10-25T16:28:03.058Z,37.08
2022-10-25T16:30:36.487Z,59.22
2022-10-25T16:33:06.457Z,58.63
2022-10-25T16:35:35.131Z,54.53
2022-10-25T16:38:04.483Z,49.92
2022-10-25T16:40:32.837Z,39.40
2022-10-25T16:43:02.347Z,36.28
2022-10-25T16:45:35.043Z,34.63
2022-10-25T16:50:35.208Z,44.60
2022-10-25T16:53:07.246Z,41.92
2022-10-25T16:55:35.343Z,44.90
2022-10-25T16:58:05.463Z,40.47
2022-10-25T17:00:35.887Z,25.80
2022-10-25T17:03:04.715Z,32.25
2022-10-25T17:05:33.871Z,35.70
2022-10-25T17:08:01.997Z,40.83
2022-10-25T17:10:33.151Z,31.92
2022-10-25T17:13:06.214Z,37.65
2022-10-25T17:15:35.226Z,41.90
2022-10-25T17:18:03.446Z,37.75
2022-10-25T17:20:31.570Z,39.08
2022-10-25T17:22:59.690Z,29.40
2022-10-25T17:25:27.879Z,42.47
2022-10-25T17:27:56.141Z,42.08
2022-10-25T17:30:25.724Z,42.33
2022-10-25T17:32:54.052Z,43.20
2022-10-25T17:35:29.595Z,31.98
2022-10-25T17:37:58.077Z,39.78
2022-10-25T17:40:26.213Z,33.30
2022-10-25T17:42:54.310Z,36.63
2022-10-25T17:45:22.361Z,42.42
2022-10-25T17:47:51.794Z,33.90
2022-10-25T17:50:22.223Z,32.65
2022-10-25T17:52:51.518Z,45.03
2022-10-25T17:55:19.749Z,46.17
2022-10-25T17:57:48.079Z,41.10
2022-10-25T18:00:19.990Z,48.05
2022-10-25T18:02:50.952Z,35.85
2022-10-25T18:05:21.823Z,43.40
2022-10-25T18:07:50.570Z,31.20
2022-10-25T18:10:18.935Z,44.95
2022-10-25T18:12:47.347Z,34.50
2022-10-25T18:15:15.793Z,29.02
2022-10-25T18:17:46.594Z,30.88
2022-10-25T18:20:15.689Z,32.75
2022-10-25T18:22:45.589Z,31.75
2022-10-25T18:25:13.733Z,29.98
2022-10-25T18:27:42.152Z,28.75
2022-10-25T18:30:12.014Z,23.83
2022-10-25T18:32:40.677Z,23.88
2022-10-25T18:35:09.574Z,27.33
2022-10-25T18:37:37.839Z,24.80
2022-10-25T18:40:10.304Z,28.25
2022-10-25T18:42:38.873Z,29.65
2022-10-25T18:45:09.549Z,25.20
2022-10-25T18:47:37.903Z,24.05
2022-10-25T18:50:07.805Z,30.85
2022-10-25T18:52:35.852Z,26.30
2022-10-25T18:55:03.934Z,25.77
2022-10-25T18:57:33.553Z,30.52
2022-10-25T19:00:01.595Z,28.42
2022-10-25T19:02:32.943Z,31.63
2022-10-25T19:05:03.549Z,25.15
2022-10-25T19:07:32.304Z,27.27
2022-10-25T19:10:00.279Z,32.75
2022-10-25T19:12:28.424Z,23.05
2022-10-25T19:14:58.744Z,32.28
2022-10-25T19:17:27.482Z,27.48
2022-10-25T19:19:55.730Z,24.73
2022-10-25T19:22:23.915Z,32.72
2022-10-25T19:24:52.647Z,29.08
2022-10-25T19:27:20.944Z,28.02
2022-10-25T19:29:49.473Z,34.67
2022-10-25T19:32:19.036Z,31.73
2022-10-25T19:34:47.471Z,32.10
2022-10-25T19:37:15.595Z,25.70
2022-10-25T19:39:44.990Z,31.63
2022-10-25T19:42:13.069Z,31.70
2022-10-25T19:44:41.547Z,29.90
2022-10-25T19:47:09.895Z,32.67
2022-10-25T19:49:39.466Z,31.45
2022-10-25T19:52:07.560Z,31.38
2022-10-25T19:54:35.663Z,37.22
2022-10-25T19:57:05.703Z,27.40
2022-10-25T19:59:33.920Z,31.08
2022-10-25T20:02:02.223Z,35.90
2022-10-25T20:04:30.588Z,29.80
2022-10-25T20:07:00.046Z,30.17
2022-10-25T20:09:28.301Z,33.45
2022-10-25T20:11:57.373Z,26.75
2022-10-25T20:14:25.680Z,28.92
2022-10-25T20:16:53.816Z,28.98
2022-10-25T20:19:22.412Z,31.60
2022-10-25T20:21:50.528Z,29.65
2022-10-25T20:24:20.009Z,38.25
2022-10-25T20:26:49.883Z,32.20
2022-10-25T20:29:21.389Z,31.92
2022-10-25T20:31:50.171Z,32.85
2022-10-25T20:34:19.084Z,35.05
2022-10-25T20:36:47.738Z,40.35
2022-10-25T20:39:15.851Z,26.42
2022-10-25T20:41:45.940Z,30.90
2022-10-25T20:44:14.748Z,36.55
2022-10-25T20:46:43.196Z,33.75
2022-10-25T20:49:11.333Z,32.55
2022-10-25T20:51:39.414Z,30.00
2022-10-25T20:54:09.853Z,30.55
2022-10-25T20:56:39.606Z,34.50
2022-10-25T20:59:09.821Z,30.60
2022-10-25T21:01:38.383Z,28.85
2022-10-25T21:04:06.637Z,34.05
2022-10-25T21:06:34.910Z,30.52
2022-10-25T21:09:03.214Z,27.70
2022-10-25T21:11:32.657Z,24.77
2022-10-25T21:14:00.873Z,34.42
2022-10-25T21:16:31.596Z,29.23
2022-10-25T21:19:03.946Z,30.70
2022-10-25T21:21:32.493Z,31.67
2022-10-25T21:24:01.565Z,25.95
2022-10-25T21:26:29.603Z,33.22
2022-10-25T21:28:57.734Z,28.25
2022-10-25T21:31:25.824Z,29.80
2022-10-25T21:33:59.303Z,25.98
2022-10-25T21:36:28.450Z,30.10
2022-10-25T21:38:56.948Z,31.30
2022-10-25T21:41:27.022Z,28.20
2022-10-25T21:43:56.321Z,22.50
2022-10-25T21:46:25.762Z,28.65
2022-10-25T21:48:56.017Z,29.33
2022-10-25T21:51:25.481Z,30.27
2022-10-25T21:53:54.066Z,31.38
2022-10-25T21:56:23.259Z,32.78
2022-10-25T21:58:52.037Z,31.88
2022-10-25T22:01:21.979Z,36.17
2022-10-25T22:03:50.915Z,36.35
2022-10-25T22:06:22.586Z,33.17
2022-10-25T22:08:51.589Z,41.08
2022-10-25T22:11:21.711Z,45.65
2022-10-25T22:13:50.169Z,34.83
2022-10-25T22:16:20.338Z,32.80
2022-10-25T22:18:51.465Z,30.08
2022-10-25T22:21:21.246Z,34.42
2022-10-25T22:23:49.657Z,32.67
2022-10-25T22:26:20.386Z,36.90
2022-10-25T22:28:52.122Z,28.88
2022-10-25T22:31:20.880Z,33.70
2022-10-25T22:33:53.111Z,39.55
2022-10-25T22:36:24.078Z,43.22
2022-10-25T22:38:52.214Z,36.03
2022-10-25T22:41:21.804Z,29.63
2022-10-25T22:43:51.249Z,33.88
2022-10-25T22:46:22.253Z,30.08
2022-10-25T22:48:50.315Z,26.33
2022-10-25T22:51:19.005Z,27.73
2022-10-25T22:53:48.977Z,29.75
2022-10-25T22:56:19.249Z,29.02
2022-10-25T22:58:50.112Z,31.48
2022-10-25T23:01:20.387Z,26.47
2022-10-25T23:03:50.286Z,23.58
2022-10-25T23:06:21.090Z,23.95
2022-10-25T23:08:52.892Z,20.60
2022-10-25T23:11:23.141Z,24.10
2022-10-25T23:13:51.354Z,23.42
2022-10-25T23:16:19.414Z,25.88
2022-10-25T23:18:47.803Z,22.88
2022-10-25T23:21:18.417Z,20.08
2022-10-25T23:23:47.014Z,21.73
2022-10-25T23:26:20.319Z,23.70
2022-10-25T23:28:48.529Z,22.90
2022-10-25T23:31:16.919Z,20.63
2022-10-25T23:33:45.509Z,22.48
2022-10-25T23:36:15.687Z,24.73
2022-10-25T23:38:44.087Z,20.50
2022-10-25T23:41:12.590Z,21.77
2022-10-25T23:43:42.268Z,20.05
2022-10-25T23:46:11.222Z,15.18
2022-10-25T23:48:39.712Z,20.88
2022-10-25T23:51:09.565Z,18.48
2022-10-25T23:53:38.081Z,17.73
2022-10-25T23:56:08.017Z,18.95
2022-10-25T23:58:36.189Z,18.85
